sensor_id;sensor_type;location;lat;lon;timestamp;pressure;altitude;pressure_sealevel;temperature;humidity
85130;BME280;75492;49.310;20.046;2024-02-23T00:03:13;90160.25;;;5.98;68.82
85130;BME280;75492;49.310;20.046;2024-02-23T00:08:15;90169.31;;;5.93;68.49
85130;BME280;75492;49.310;20.046;2024-02-23T00:13:17;90166.44;;;6.05;68.61
85130;BME280;75492;49.310;20.046;2024-02-23T00:18:18;90167.44;;;5.94;68.77
85130;BME280;75492;49.310;20.046;2024-02-23T00:23:21;90163.31;;;6.00;68.61
85130;BME280;75492;49.310;20.046;2024-02-23T00:28:22;90164.53;;;5.83;69.70
85130;BME280;75492;49.310;20.046;2024-02-23T00:33:24;90159.16;;;5.79;69.61
85130;BME280;75492;49.310;20.046;2024-02-23T00:38:26;90166.25;;;5.49;69.90
85130;BME280;75492;49.310;20.046;2024-02-23T00:43:28;90177.06;;;5.36;70.38
85130;BME280;75492;49.310;20.046;2024-02-23T00:48:29;90182.69;;;5.31;70.13
85130;BME280;75492;49.310;20.046;2024-02-23T00:53:32;90173.81;;;5.24;70.96
85130;BME280;75492;49.310;20.046;2024-02-23T00:58:33;90165.84;;;5.04;71.25
85130;BME280;75492;49.310;20.046;2024-02-23T01:03:35;90174.03;;;4.95;72.82
85130;BME280;75492;49.310;20.046;2024-02-23T01:08:38;90160.78;;;5.18;70.96
85130;BME280;75492;49.310;20.046;2024-02-23T01:13:39;90166.88;;;5.00;72.44
85130;BME280;75492;49.310;20.046;2024-02-23T01:18:40;90174.47;;;4.98;72.66
85130;BME280;75492;49.310;20.046;2024-02-23T01:23:43;90145.19;;;4.98;72.47
85130;BME280;75492;49.310;20.046;2024-02-23T01:28:45;90160.53;;;5.04;72.22
85130;BME280;75492;49.310;20.046;2024-02-23T01:33:46;90161.03;;;4.90;73.95
85130;BME280;75492;49.310;20.046;2024-02-23T01:38:49;90135.31;;;4.98;72.59
85130;BME280;75492;49.310;20.046;2024-02-23T01:43:51;90159.75;;;4.65;76.91
85130;BME280;75492;49.310;20.046;2024-02-23T01:48:52;90161.16;;;4.59;77.50
85130;BME280;75492;49.310;20.046;2024-02-23T01:53:55;90143.94;;;4.72;74.89
85130;BME280;75492;49.310;20.046;2024-02-23T01:58:56;90147.28;;;4.69;74.72
85130;BME280;75492;49.310;20.046;2024-02-23T02:03:58;90142.66;;;4.66;75.89
85130;BME280;75492;49.310;20.046;2024-02-23T02:09:01;90146.66;;;4.56;77.13
85130;BME280;75492;49.310;20.046;2024-02-23T02:14:03;90136.88;;;4.60;76.90
85130;BME280;75492;49.310;20.046;2024-02-23T02:19:04;90140.50;;;4.52;77.09
85130;BME280;75492;49.310;20.046;2024-02-23T02:24:07;90131.88;;;4.59;75.46
85130;BME280;75492;49.310;20.046;2024-02-23T02:29:08;90138.75;;;4.40;78.02
85130;BME280;75492;49.310;20.046;2024-02-23T02:34:10;90146.56;;;4.53;78.16
85130;BME280;75492;49.310;20.046;2024-02-23T02:39:12;90142.94;;;4.41;77.79
85130;BME280;75492;49.310;20.046;2024-02-23T02:44:14;90136.34;;;4.35;78.01
85130;BME280;75492;49.310;20.046;2024-02-23T02:49:15;90135.94;;;4.33;78.11
85130;BME280;75492;49.310;20.046;2024-02-23T02:54:18;90137.88;;;4.36;78.16
85130;BME280;75492;49.310;20.046;2024-02-23T02:59:20;90143.50;;;4.31;77.84
85130;BME280;75492;49.310;20.046;2024-02-23T03:04:21;90146.22;;;4.35;77.45
85130;BME280;75492;49.310;20.046;2024-02-23T03:09:24;90131.47;;;4.37;78.28
85130;BME280;75492;49.310;20.046;2024-02-23T03:14:25;90137.94;;;4.20;78.93
85130;BME280;75492;49.310;20.046;2024-02-23T03:19:27;90143.88;;;4.14;78.88
85130;BME280;75492;49.310;20.046;2024-02-23T03:24:30;90135.31;;;4.05;79.02
85130;BME280;75492;49.310;20.046;2024-02-23T03:29:31;90141.31;;;4.01;80.15
85130;BME280;75492;49.310;20.046;2024-02-23T03:34:32;90153.69;;;3.94;80.49
85130;BME280;75492;49.310;20.046;2024-02-23T03:39:35;90150.25;;;3.93;80.77
85130;BME280;75492;49.310;20.046;2024-02-23T03:44:36;90147.09;;;3.88;80.24
85130;BME280;75492;49.310;20.046;2024-02-23T03:49:38;90160.69;;;3.86;80.88
85130;BME280;75492;49.310;20.046;2024-02-23T03:54:40;90168.59;;;3.98;79.88
85130;BME280;75492;49.310;20.046;2024-02-23T03:59:51;90154.38;;;3.91;80.85
85130;BME280;75492;49.310;20.046;2024-02-23T04:04:53;90168.94;;;3.97;80.88
85130;BME280;75492;49.310;20.046;2024-02-23T04:09:56;90148.91;;;3.68;81.02
85130;BME280;75492;49.310;20.046;2024-02-23T04:14:57;90158.00;;;3.67;82.53
85130;BME280;75492;49.310;20.046;2024-02-23T04:20:00;90163.72;;;3.69;82.37
85130;BME280;75492;49.310;20.046;2024-02-23T04:25:08;90176.59;;;3.67;82.76
85130;BME280;75492;49.310;20.046;2024-02-23T04:30:10;90169.22;;;3.60;82.54
85130;BME280;75492;49.310;20.046;2024-02-23T04:35:12;90181.19;;;3.86;81.83
85130;BME280;75492;49.310;20.046;2024-02-23T04:40:15;90183.94;;;3.73;82.32
85130;BME280;75492;49.310;20.046;2024-02-23T04:45:16;90192.78;;;3.77;82.74
85130;BME280;75492;49.310;20.046;2024-02-23T04:50:18;90187.03;;;3.91;81.98
85130;BME280;75492;49.310;20.046;2024-02-23T04:55:21;90174.78;;;3.87;81.61
85130;BME280;75492;49.310;20.046;2024-02-23T05:00:22;90194.81;;;3.68;83.02
85130;BME280;75492;49.310;20.046;2024-02-23T05:05:24;90192.25;;;3.88;82.69
85130;BME280;75492;49.310;20.046;2024-02-23T05:10:26;90198.41;;;3.76;83.04
85130;BME280;75492;49.310;20.046;2024-02-23T05:15:31;90200.91;;;3.69;82.92
85130;BME280;75492;49.310;20.046;2024-02-23T05:20:32;90202.63;;;3.77;82.20
85130;BME280;75492;49.310;20.046;2024-02-23T05:25:35;90196.28;;;3.66;82.90
85130;BME280;75492;49.310;20.046;2024-02-23T05:30:37;90221.91;;;3.74;83.08
85130;BME280;75492;49.310;20.046;2024-02-23T05:35:38;90217.78;;;3.92;82.43
85130;BME280;75492;49.310;20.046;2024-02-23T05:40:41;90227.47;;;3.85;82.47
85130;BME280;75492;49.310;20.046;2024-02-23T05:45:43;90230.81;;;3.82;83.45
85130;BME280;75492;49.310;20.046;2024-02-23T05:50:44;90241.94;;;3.71;83.00
85130;BME280;75492;49.310;20.046;2024-02-23T05:55:47;90243.41;;;3.85;83.18
85130;BME280;75492;49.310;20.046;2024-02-23T06:00:48;90253.94;;;3.81;83.56
85130;BME280;75492;49.310;20.046;2024-02-23T06:05:50;90257.22;;;3.90;84.36
85130;BME280;75492;49.310;20.046;2024-02-23T06:10:52;90255.66;;;3.89;84.37
85130;BME280;75492;49.310;20.046;2024-02-23T06:15:54;90264.31;;;3.70;85.38
85130;BME280;75492;49.310;20.046;2024-02-23T06:20:55;90278.78;;;3.73;85.64
85130;BME280;75492;49.310;20.046;2024-02-23T06:25:58;90270.41;;;3.87;85.04
85130;BME280;75492;49.310;20.046;2024-02-23T06:30:59;90276.03;;;3.69;86.76
85130;BME280;75492;49.310;20.046;2024-02-23T06:36:01;90288.03;;;3.79;87.60
85130;BME280;75492;49.310;20.046;2024-02-23T06:41:04;90286.59;;;3.82;86.50
85130;BME280;75492;49.310;20.046;2024-02-23T06:46:07;90278.97;;;3.96;86.09
85130;BME280;75492;49.310;20.046;2024-02-23T06:51:08;90288.91;;;4.15;86.37
85130;BME280;75492;49.310;20.046;2024-02-23T06:56:11;90293.47;;;4.30;86.35
85130;BME280;75492;49.310;20.046;2024-02-23T07:01:12;90290.53;;;4.51;86.26
85130;BME280;75492;49.310;20.046;2024-02-23T07:06:13;90293.88;;;4.64;84.82
85130;BME280;75492;49.310;20.046;2024-02-23T07:11:16;90293.75;;;4.76;84.05
85130;BME280;75492;49.310;20.046;2024-02-23T07:16:18;90293.38;;;4.93;83.17
85130;BME280;75492;49.310;20.046;2024-02-23T07:21:19;90300.81;;;5.04;82.35
85130;BME280;75492;49.310;20.046;2024-02-23T07:26:22;90305.13;;;4.92;82.85
85130;BME280;75492;49.310;20.046;2024-02-23T07:31:23;90301.75;;;4.95;83.33
85130;BME280;75492;49.310;20.046;2024-02-23T07:36:25;90304.03;;;5.13;82.66
85130;BME280;75492;49.310;20.046;2024-02-23T07:41:27;90298.69;;;5.13;82.65
85130;BME280;75492;49.310;20.046;2024-02-23T07:46:29;90304.75;;;5.10;80.73
85130;BME280;75492;49.310;20.046;2024-02-23T07:51:30;90305.72;;;5.21;81.13
85130;BME280;75492;49.310;20.046;2024-02-23T07:56:33;90310.44;;;5.28;80.63
85130;BME280;75492;49.310;20.046;2024-02-23T08:01:34;90317.72;;;5.31;80.15
85130;BME280;75492;49.310;20.046;2024-02-23T08:06:36;90324.47;;;5.44;80.37
85130;BME280;75492;49.310;20.046;2024-02-23T08:11:39;90344.19;;;5.43;80.63
85130;BME280;75492;49.310;20.046;2024-02-23T08:16:40;90337.63;;;5.37;82.49
85130;BME280;75492;49.310;20.046;2024-02-23T08:21:41;90342.75;;;5.46;80.94
85130;BME280;75492;49.310;20.046;2024-02-23T08:26:44;90336.38;;;5.50;79.79
85130;BME280;75492;49.310;20.046;2024-02-23T08:31:46;90331.31;;;5.64;79.86
85130;BME280;75492;49.310;20.046;2024-02-23T08:36:47;90363.50;;;5.75;81.75
85130;BME280;75492;49.310;20.046;2024-02-23T08:41:56;90354.31;;;5.73;81.18
85130;BME280;75492;49.310;20.046;2024-02-23T08:46:57;90340.72;;;5.58;83.52
85130;BME280;75492;49.310;20.046;2024-02-23T08:51:59;90359.16;;;5.67;83.94
85130;BME280;75492;49.310;20.046;2024-02-23T08:57:02;90358.16;;;5.56;83.17
85130;BME280;75492;49.310;20.046;2024-02-23T09:02:03;90363.84;;;5.54;83.39
85130;BME280;75492;49.310;20.046;2024-02-23T09:07:05;90373.50;;;5.43;83.96
85130;BME280;75492;49.310;20.046;2024-02-23T09:12:08;90373.41;;;5.20;85.71
85130;BME280;75492;49.310;20.046;2024-02-23T09:17:10;90382.44;;;5.51;84.76
85130;BME280;75492;49.310;20.046;2024-02-23T09:22:12;90385.34;;;5.46;84.79
85130;BME280;75492;49.310;20.046;2024-02-23T09:27:15;90393.81;;;5.32;84.45
85130;BME280;75492;49.310;20.046;2024-02-23T09:32:16;90366.66;;;5.07;84.32
85130;BME280;75492;49.310;20.046;2024-02-23T09:37:19;90404.63;;;5.39;84.28
85130;BME280;75492;49.310;20.046;2024-02-23T09:42:23;90401.88;;;5.71;82.50
85130;BME280;75492;49.310;20.046;2024-02-23T09:47:25;90410.56;;;5.68;83.00
85130;BME280;75492;49.310;20.046;2024-02-23T09:52:28;90433.78;;;5.86;82.76
85130;BME280;75492;49.310;20.046;2024-02-23T09:57:31;90430.69;;;5.84;82.47
85130;BME280;75492;49.310;20.046;2024-02-23T10:02:33;90412.09;;;5.69;82.92
85130;BME280;75492;49.310;20.046;2024-02-23T10:07:34;90408.59;;;5.84;81.84
85130;BME280;75492;49.310;20.046;2024-02-23T10:12:37;90407.13;;;5.86;82.00
85130;BME280;75492;49.310;20.046;2024-02-23T10:17:38;90411.84;;;6.12;80.44
85130;BME280;75492;49.310;20.046;2024-02-23T10:22:39;90421.53;;;6.01;81.14
85130;BME280;75492;49.310;20.046;2024-02-23T10:27:42;90414.78;;;5.88;81.20
85130;BME280;75492;49.310;20.046;2024-02-23T10:32:45;90409.66;;;6.18;79.46
85130;BME280;75492;49.310;20.046;2024-02-23T10:37:48;90420.84;;;6.04;78.31
85130;BME280;75492;49.310;20.046;2024-02-23T10:42:55;90410.28;;;5.92;79.24
85130;BME280;75492;49.310;20.046;2024-02-23T10:47:58;90425.97;;;5.94;78.38
85130;BME280;75492;49.310;20.046;2024-02-23T10:53:00;90416.25;;;6.24;77.62
85130;BME280;75492;49.310;20.046;2024-02-23T10:58:05;90421.94;;;6.23;77.90
85130;BME280;75492;49.310;20.046;2024-02-23T11:03:08;90423.44;;;6.20;77.10
85130;BME280;75492;49.310;20.046;2024-02-23T11:08:09;90419.63;;;6.21;77.23
85130;BME280;75492;49.310;20.046;2024-02-23T11:13:12;90429.44;;;6.36;76.50
85130;BME280;75492;49.310;20.046;2024-02-23T11:18:23;90436.69;;;5.97;77.95
85130;BME280;75492;49.310;20.046;2024-02-23T11:23:24;90428.09;;;5.88;78.59
85130;BME280;75492;49.310;20.046;2024-02-23T11:28:27;90436.81;;;6.04;78.49
85130;BME280;75492;49.310;20.046;2024-02-23T11:33:28;90417.75;;;6.02;77.38
85130;BME280;75492;49.310;20.046;2024-02-23T11:38:30;90433.44;;;5.88;79.32
85130;BME280;75492;49.310;20.046;2024-02-23T11:43:34;90420.88;;;5.88;77.57
85130;BME280;75492;49.310;20.046;2024-02-23T11:48:36;90448.84;;;6.14;77.33
85130;BME280;75492;49.310;20.046;2024-02-23T11:53:37;90447.13;;;6.25;78.18
85130;BME280;75492;49.310;20.046;2024-02-23T11:58:41;90443.75;;;6.28;77.75
85130;BME280;75492;49.310;20.046;2024-02-23T12:03:43;90444.06;;;6.23;78.91
85130;BME280;75492;49.310;20.046;2024-02-23T12:08:44;90442.38;;;6.15;79.12
85130;BME280;75492;49.310;20.046;2024-02-23T12:13:47;90446.28;;;6.02;78.85
85130;BME280;75492;49.310;20.046;2024-02-23T12:18:53;90459.50;;;6.14;78.35
85130;BME280;75492;49.310;20.046;2024-02-23T12:23:55;90456.75;;;6.10;79.22
85130;BME280;75492;49.310;20.046;2024-02-23T12:29:02;90463.28;;;5.94;80.63
85130;BME280;75492;49.310;20.046;2024-02-23T12:34:03;90466.91;;;6.05;79.07
85130;BME280;75492;49.310;20.046;2024-02-23T12:39:05;90462.03;;;6.07;79.80
85130;BME280;75492;49.310;20.046;2024-02-23T12:44:08;90472.81;;;5.95;80.35
85130;BME280;75492;49.310;20.046;2024-02-23T12:49:09;90467.63;;;6.02;79.37
85130;BME280;75492;49.310;20.046;2024-02-23T12:54:11;90467.56;;;5.82;79.71
85130;BME280;75492;49.310;20.046;2024-02-23T12:59:16;90486.28;;;6.02;79.44
85130;BME280;75492;49.310;20.046;2024-02-23T13:04:18;90498.44;;;6.19;80.77
85130;BME280;75492;49.310;20.046;2024-02-23T13:09:20;90496.38;;;6.12;79.34
85130;BME280;75492;49.310;20.046;2024-02-23T13:14:29;90484.69;;;6.17;79.90
85130;BME280;75492;49.310;20.046;2024-02-23T13:19:31;90469.53;;;6.21;79.86
85130;BME280;75492;49.310;20.046;2024-02-23T13:24:32;90488.97;;;6.41;78.40
85130;BME280;75492;49.310;20.046;2024-02-23T13:29:35;90501.75;;;6.31;78.42
85130;BME280;75492;49.310;20.046;2024-02-23T13:34:37;90505.31;;;6.39;79.71
85130;BME280;75492;49.310;20.046;2024-02-23T13:39:38;90519.28;;;6.52;79.37
85130;BME280;75492;49.310;20.046;2024-02-23T13:44:41;90499.78;;;6.28;80.58
85130;BME280;75492;49.310;20.046;2024-02-23T13:49:42;90504.53;;;6.39;79.06
85130;BME280;75492;49.310;20.046;2024-02-23T13:54:44;90511.00;;;6.38;79.04
85130;BME280;75492;49.310;20.046;2024-02-23T13:59:47;90514.31;;;6.50;79.52
85130;BME280;75492;49.310;20.046;2024-02-23T14:04:48;90524.91;;;6.47;80.35
85130;BME280;75492;49.310;20.046;2024-02-23T14:09:50;90509.38;;;6.52;80.25
85130;BME280;75492;49.310;20.046;2024-02-23T14:14:52;90491.25;;;6.23;80.59
85130;BME280;75492;49.310;20.046;2024-02-23T14:19:54;90495.91;;;6.26;80.84
85130;BME280;75492;49.310;20.046;2024-02-23T14:24:55;90492.41;;;6.41;81.06
85130;BME280;75492;49.310;20.046;2024-02-23T14:29:58;90494.50;;;6.32;79.53
85130;BME280;75492;49.310;20.046;2024-02-23T14:34:59;90495.91;;;6.26;79.45
85130;BME280;75492;49.310;20.046;2024-02-23T14:40:01;90508.13;;;6.27;79.29
85130;BME280;75492;49.310;20.046;2024-02-23T14:45:05;90507.84;;;6.32;78.80
85130;BME280;75492;49.310;20.046;2024-02-23T14:50:07;90513.94;;;6.32;78.15
85130;BME280;75492;49.310;20.046;2024-02-23T14:55:08;90511.44;;;6.20;78.43
85130;BME280;75492;49.310;20.046;2024-02-23T15:00:13;90517.03;;;6.34;78.82
85130;BME280;75492;49.310;20.046;2024-02-23T15:05:14;90516.69;;;6.36;77.33
85130;BME280;75492;49.310;20.046;2024-02-23T15:10:16;90517.75;;;6.31;78.21
85130;BME280;75492;49.310;20.046;2024-02-23T15:15:19;90514.53;;;6.06;79.07
85130;BME280;75492;49.310;20.046;2024-02-23T15:20:21;90500.13;;;6.07;78.96
85130;BME280;75492;49.310;20.046;2024-02-23T15:25:22;90528.47;;;6.16;79.79
85130;BME280;75492;49.310;20.046;2024-02-23T15:30:25;90533.66;;;6.08;78.71
85130;BME280;75492;49.310;20.046;2024-02-23T15:35:27;90548.59;;;6.13;79.23
85130;BME280;75492;49.310;20.046;2024-02-23T15:40:28;90549.13;;;6.03;80.46
85130;BME280;75492;49.310;20.046;2024-02-23T15:45:31;90545.22;;;5.65;80.91
85130;BME280;75492;49.310;20.046;2024-02-23T15:50:32;90559.56;;;5.76;81.13
85130;BME280;75492;49.310;20.046;2024-02-23T15:55:34;90557.84;;;5.84;81.00
85130;BME280;75492;49.310;20.046;2024-02-23T16:00:37;90565.75;;;5.80;79.29
85130;BME280;75492;49.310;20.046;2024-02-23T16:05:39;90580.25;;;5.83;77.52
85130;BME280;75492;49.310;20.046;2024-02-23T16:10:40;90574.00;;;5.75;78.93
85130;BME280;75492;49.310;20.046;2024-02-23T16:15:43;90587.69;;;5.74;79.61
85130;BME280;75492;49.310;20.046;2024-02-23T16:20:44;90590.69;;;5.72;78.69
85130;BME280;75492;49.310;20.046;2024-02-23T16:25:45;90571.94;;;5.69;77.10
85130;BME280;75492;49.310;20.046;2024-02-23T16:30:48;90562.75;;;5.66;77.21
85130;BME280;75492;49.310;20.046;2024-02-23T16:35:50;90572.38;;;5.71;74.13
85130;BME280;75492;49.310;20.046;2024-02-23T16:40:51;90582.47;;;5.93;71.03
85130;BME280;75492;49.310;20.046;2024-02-23T16:45:54;90579.56;;;5.86;71.89
85130;BME280;75492;49.310;20.046;2024-02-23T16:50:55;90558.47;;;5.93;70.81
85130;BME280;75492;49.310;20.046;2024-02-23T16:55:57;90572.88;;;5.92;71.27
85130;BME280;75492;49.310;20.046;2024-02-23T17:01:01;90566.53;;;5.65;72.40
85130;BME280;75492;49.310;20.046;2024-02-23T17:06:04;90591.53;;;5.92;70.66
85130;BME280;75492;49.310;20.046;2024-02-23T17:11:05;90599.50;;;5.92;72.01
85130;BME280;75492;49.310;20.046;2024-02-23T17:16:08;90580.63;;;5.97;70.87
85130;BME280;75492;49.310;20.046;2024-02-23T17:21:09;90588.34;;;6.02;71.32
85130;BME280;75492;49.310;20.046;2024-02-23T17:26:11;90604.19;;;5.95;72.96
85130;BME280;75492;49.310;20.046;2024-02-23T17:31:14;90557.84;;;5.68;72.57
85130;BME280;75492;49.310;20.046;2024-02-23T17:36:15;90589.72;;;5.96;72.28
85130;BME280;75492;49.310;20.046;2024-02-23T17:41:16;90592.22;;;5.89;72.87
85130;BME280;75492;49.310;20.046;2024-02-23T17:46:19;90584.50;;;5.84;72.96
85130;BME280;75492;49.310;20.046;2024-02-23T17:51:21;90581.13;;;5.87;71.70
85130;BME280;75492;49.310;20.046;2024-02-23T17:56:22;90592.97;;;5.89;72.67
85130;BME280;75492;49.310;20.046;2024-02-23T18:01:25;90585.19;;;5.81;73.04
85130;BME280;75492;49.310;20.046;2024-02-23T18:06:27;90573.22;;;5.90;72.06
85130;BME280;75492;49.310;20.046;2024-02-23T18:11:28;90582.00;;;5.91;72.77
85130;BME280;75492;49.310;20.046;2024-02-23T18:16:31;90570.81;;;5.85;74.03
85130;BME280;75492;49.310;20.046;2024-02-23T18:21:33;90573.91;;;5.87;73.62
85130;BME280;75492;49.310;20.046;2024-02-23T18:26:34;90587.84;;;5.81;74.13
85130;BME280;75492;49.310;20.046;2024-02-23T18:31:37;90594.75;;;5.50;75.19
85130;BME280;75492;49.310;20.046;2024-02-23T18:36:38;90603.75;;;5.46;75.64
85130;BME280;75492;49.310;20.046;2024-02-23T18:41:40;90572.13;;;5.28;75.26
85130;BME280;75492;49.310;20.046;2024-02-23T18:46:42;90596.34;;;5.39;75.46
85130;BME280;75492;49.310;20.046;2024-02-23T18:51:44;90592.66;;;5.28;75.92
85130;BME280;75492;49.310;20.046;2024-02-23T18:56:45;90594.03;;;5.37;76.86
85130;BME280;75492;49.310;20.046;2024-02-23T19:01:48;90544.78;;;5.00;77.56
85130;BME280;75492;49.310;20.046;2024-02-23T19:06:50;90571.44;;;5.15;77.16
85130;BME280;75492;49.310;20.046;2024-02-23T19:11:51;90592.06;;;5.34;78.38
85130;BME280;75492;49.310;20.046;2024-02-23T19:16:54;90593.06;;;5.30;77.77
85130;BME280;75492;49.310;20.046;2024-02-23T19:21:56;90587.13;;;5.05;79.22
85130;BME280;75492;49.310;20.046;2024-02-23T19:26:57;90584.47;;;5.05;80.78
85130;BME280;75492;49.310;20.046;2024-02-23T19:32:00;90594.19;;;5.13;80.95
85130;BME280;75492;49.310;20.046;2024-02-23T19:37:02;90579.94;;;4.49;83.60
85130;BME280;75492;49.310;20.046;2024-02-23T19:42:03;90589.66;;;4.85;80.13
85130;BME280;75492;49.310;20.046;2024-02-23T19:47:07;90573.59;;;5.10;78.65
85130;BME280;75492;49.310;20.046;2024-02-23T19:52:09;90560.00;;;4.99;78.76
85130;BME280;75492;49.310;20.046;2024-02-23T19:57:10;90570.13;;;5.09;79.44
85130;BME280;75492;49.310;20.046;2024-02-23T20:02:13;90592.47;;;5.05;81.78
85130;BME280;75492;49.310;20.046;2024-02-23T20:07:14;90563.00;;;4.98;81.53
85130;BME280;75492;49.310;20.046;2024-02-23T20:12:16;90534.81;;;4.81;82.63
85130;BME280;75492;49.310;20.046;2024-02-23T20:17:19;90559.66;;;5.01;82.21
85130;BME280;75492;49.310;20.046;2024-02-23T20:22:20;90562.09;;;5.37;77.80
85130;BME280;75492;49.310;20.046;2024-02-23T20:27:22;90559.94;;;5.11;81.46
85130;BME280;75492;49.310;20.046;2024-02-23T20:32:24;90574.69;;;4.65;85.38
85130;BME280;75492;49.310;20.046;2024-02-23T20:37:26;90572.25;;;4.88;83.21
85130;BME280;75492;49.310;20.046;2024-02-23T20:42:28;90529.78;;;4.91;83.74
85130;BME280;75492;49.310;20.046;2024-02-23T20:47:31;90551.13;;;4.51;87.00
85130;BME280;75492;49.310;20.046;2024-02-23T20:52:32;90563.66;;;4.51;87.32
85130;BME280;75492;49.310;20.046;2024-02-23T20:57:33;90564.81;;;4.65;86.88
85130;BME280;75492;49.310;20.046;2024-02-23T21:02:36;90539.19;;;4.17;89.31
85130;BME280;75492;49.310;20.046;2024-02-23T21:07:37;90552.88;;;4.59;88.20
85130;BME280;75492;49.310;20.046;2024-02-23T21:12:39;90570.44;;;4.48;87.75
85130;BME280;75492;49.310;20.046;2024-02-23T21:17:42;90551.28;;;4.70;86.50
85130;BME280;75492;49.310;20.046;2024-02-23T21:22:44;90555.25;;;4.77;87.17
85130;BME280;75492;49.310;20.046;2024-02-23T21:27:45;90567.84;;;4.80;87.57
85130;BME280;75492;49.310;20.046;2024-02-23T21:32:48;90552.09;;;4.87;86.27
85130;BME280;75492;49.310;20.046;2024-02-23T21:37:51;90554.16;;;4.65;87.14
85130;BME280;75492;49.310;20.046;2024-02-23T21:42:52;90575.22;;;4.70;87.37
85130;BME280;75492;49.310;20.046;2024-02-23T21:47:55;90562.53;;;4.80;86.96
85130;BME280;75492;49.310;20.046;2024-02-23T21:52:56;90558.09;;;4.84;87.35
85130;BME280;75492;49.310;20.046;2024-02-23T21:57:58;90581.31;;;4.71;88.40
85130;BME280;75492;49.310;20.046;2024-02-23T22:03:01;90542.84;;;4.68;86.60
85130;BME280;75492;49.310;20.046;2024-02-23T22:08:03;90529.31;;;4.89;85.63
85130;BME280;75492;49.310;20.046;2024-02-23T22:13:05;90550.91;;;5.16;84.29
85130;BME280;75492;49.310;20.046;2024-02-23T22:18:08;90546.09;;;5.06;85.97
85130;BME280;75492;49.310;20.046;2024-02-23T22:23:10;90559.59;;;5.29;83.27
85130;BME280;75492;49.310;20.046;2024-02-23T22:28:11;90513.91;;;5.27;83.14
85130;BME280;75492;49.310;20.046;2024-02-23T22:33:14;90536.16;;;5.34;84.34
85130;BME280;75492;49.310;20.046;2024-02-23T22:38:15;90548.94;;;5.29;85.22
85130;BME280;75492;49.310;20.046;2024-02-23T22:43:17;90521.25;;;5.49;79.40
85130;BME280;75492;49.310;20.046;2024-02-23T22:48:20;90518.50;;;5.61;80.63
85130;BME280;75492;49.310;20.046;2024-02-23T22:53:21;90530.63;;;5.59;81.75
85130;BME280;75492;49.310;20.046;2024-02-23T22:58:22;90514.91;;;5.89;77.03
85130;BME280;75492;49.310;20.046;2024-02-23T23:03:25;90538.44;;;5.68;81.21
85130;BME280;75492;49.310;20.046;2024-02-23T23:08:26;90533.44;;;5.66;80.35
85130;BME280;75492;49.310;20.046;2024-02-23T23:13:28;90510.97;;;5.83;78.17
85130;BME280;75492;49.310;20.046;2024-02-23T23:18:31;90522.16;;;5.73;78.55
85130;BME280;75492;49.310;20.046;2024-02-23T23:23:32;90517.97;;;5.72;80.17
85130;BME280;75492;49.310;20.046;2024-02-23T23:28:33;90512.72;;;5.75;78.41
85130;BME280;75492;49.310;20.046;2024-02-23T23:33:36;90507.63;;;5.86;78.12
85130;BME280;75492;49.310;20.046;2024-02-23T23:38:40;90494.38;;;5.89;77.08
85130;BME280;75492;49.310;20.046;2024-02-23T23:43:41;90476.31;;;5.63;79.82
85130;BME280;75492;49.310;20.046;2024-02-23T23:48:44;90469.41;;;5.62;79.68
85130;BME280;75492;49.310;20.046;2024-02-23T23:53:46;90485.16;;;5.68;79.48
85130;BME280;75492;49.310;20.046;2024-02-23T23:58:47;90484.03;;;6.43;71.95
